首页
METAR-TAF:

METAR-TAF

机场 :

Tri-Cities Regional Airport

布里斯托尔 / 约翰逊城 / 金斯波特, 田纳西州, 美国

纬度: 36-28-47N, 经度: 082-23-56W, 海拔: 463米

当前天气观测

该预报发布于1小时和13分钟前的17:53 UTC
静风
温度 11°C
湿度 94%
气压 1018 hPa
能見度: 12.9公里
散云层高于3900英尺
多云层高于5000英尺
阴天层高于7000英尺
大雨

METAR: KTRI 181753Z 00000KT 8SM +RA SCT039 BKN050 OVC070 11/10 A3006 RMK AO2 PRESFR SLP168 P0011 60011 T01110100 10139 20039 58019

时间: 14:06 (19:06 UTC)

预报

该预报发布于1小时和41分钟前的17:25 UTC
预报有效从18日的 18点(UTC)到 19日的 18点(UTC)
风速节,风向
能見度: 9.7公里
散云层高于2000英尺
阴天层高于4000英尺
小阵雨
从 18日的 2000点(UTC)
风速3节,风向多变
能見度: 4.8公里
阴天层高于700英尺
小阵雨
从 19日的 0500点(UTC)
风速5节,风向
能見度: 10公里
阴天层高于700英尺
附近有阵雨
从 19日的 0700点(UTC)
风速5节,风向
能見度: 10公里
阴天层高于2000英尺
从 19日的 1400点(UTC)
风速8节,风向北转东北
能見度: 10公里
散云层高于4000英尺
多云层高于20000英尺

TAF: KTRI 181725Z 1818/1918 00000KT 6SM -SHRA SCT020 OVC040 FM182000 VRB03KT 3SM -SHRA OVC007 FM190500 36005KT P6SM VCSH OVC007 FM190700 36005KT P6SM OVC020 FM191400 02008KT P6SM SCT040 BKN200

超过4000个机场的气象观测和天气预报(METAR&TAF报告)。

可查询的气象台以黄色和红色小点在地图上表示。

将鼠标移到小点上方,可查看气象台名称。

然后点击查看天气观测和预报。

如需切换地图:点击带黑十字的绿色按钮放大地图;点击带横线的绿色按钮缩小地图;或者点击绿色箭头查看邻近地区的地图。


METAR-TAF: